KRIV/RIV METAR and TAF weather

Enter ICAO airport designator
Station Type Date Time Source
KRIV METAR 2022/12/08 12:55 UTC NOAA

KRIV 081255Z 00000KT 6SM BR CLR 00/M01 A3027 RMK AO2A SLP255 T00041008


Station Type Date Time Source
KRIV Decoded METAR 2022/12/08 12:55 UTC NOAA

Riverside / March Air Force Base, CA, United States (KRIV) 33-54N 117-15W 468M
Dec 08, 2022 - 07:55 AM EST / 2022.12.08 1255 UTC
Wind: Calm:0
Visibility: 6 mile(s):0
Sky conditions: clear
Weather: mist
Temperature: 32.7 F (0.4 C)
Dew Point: 30.6 F (-0.8 C)
Relative Humidity: 91%
Pressure (altimeter): 30.27 in. Hg (1025 hPa)
ob: KRIV 081255Z 00000KT 6SM BR CLR 00/M01 A3027 RMK AO2A SLP255 T00041008
cycle: 13

Station Type Date Time Source
KRIV TAF 2022/12/08 12:12 UTC NOAA

TAF KRIV 081205Z 0812/0918 VRB04KT 9000 BR SKC QNH3025INS
BECMG 0815/0816 VRB04KT 9999 NSW SKC QNH3027INS
BECMG 0817/0818 29004KT 9999 FEW030 QNH3022INS
BECMG 0820/0821 32010KT 9999 FEW050 QNH3018INS
BECMG 0901/0902 30004KT 9999 SCT180 QNH3020INS
BECMG 0905/0906 VRB04KT 9999 BKN150 QNH3016INS
BECMG 0911/0912 15006KT 9999 FEW150 BKN250 QNH3018INS TX15/0822Z TN00/0814Z

Example: see airport list